ADDS METAR Data INFO
IDs: Format: Raw Decoded Include TAF

Data at: 1234 UTC 25 Jul 2017

KPSX 251053Z AUTO 16008KT 10SM CLR 27/23 A3004 RMK AO2 SLP173 T02720233
KPSX 250953Z AUTO 16006KT 10SM CLR 27/24 A3004 RMK AO2 SLP172 T02670239
KPSX 250853Z AUTO 15009KT 10SM CLR 27/23 A3002 RMK AO2 SLP166 T02720233 50001
KPSX 250753Z AUTO 16010KT 10SM FEW028 27/23 A3002 RMK AO2 SLP166 T02720233
KPSX 250653Z AUTO 17011KT 10SM FEW027 27/23 A3002 RMK AO2 SLP165 T02720233
KPSX 250646Z AUTO 16009KT 10SM BKN027 28/23 A3002 RMK AO2 T02780233
KPSX 250553Z AUTO 16011KT 10SM CLR 28/23 A3002 RMK AO2 SLP165 T02780233 10294 20272 403170272 51013
KPSX 250453Z AUTO 16009KT 10SM CLR 28/23 A3002 RMK AO2 SLP163 T02780233
KPSX 250353Z AUTO 15012KT 10SM FEW025 28/23 A3000 RMK AO2 SLP159 T02780233
KPSX 250253Z AUTO 17011KT 10SM FEW027 28/23 A2998 RMK AO2 SLP152 T02830228 53003
KPSX 250153Z AUTO 16008KT 10SM FEW026 FEW033 28/23 A2998 RMK AO2 SLP150 T02780233
KPSX 250053Z AUTO 17010KT 10SM FEW029 29/23 A2998 RMK AO2 SLP150 T02890233
KPSX 242353Z AUTO 16010KT 10SM FEW026 29/23 A2997 RMK AO2 SLP149 T02940233 10317 20294 53004
KPSX 242253Z AUTO 17009G17KT 10SM CLR 31/24 A2996 RMK AO2 SLP146 T03060239
KPSX 242153Z AUTO 17011KT 10SM CLR 30/23 A2996 RMK AO2 SLP143 T03000233
KPSX 242053Z AUTO 17012KT 10SM CLR 31/23 A2996 RMK AO2 SLP146 T03060233 58016
KPSX 241953Z AUTO 19011KT 10SM CLR 31/23 A2998 RMK AO2 SLP151 T03110233
KPSX 241853Z AUTO 20011KT 10SM CLR 31/23 A3000 RMK AO2 SLP159 T03110233
KPSX 241753Z AUTO 19012KT 10SM CLR 31/23 A3001 RMK AO2 SLP162 T03060233 10306 20278 50006
KPSX 241653Z AUTO 19010KT 10SM FEW033 31/23 A3001 RMK AO2 SLP162 T03060233
KPSX 241553Z AUTO 19011KT 10SM SCT025 OVC031 30/24 A3001 RMK AO2 SLP162 T03000239
KPSX 241538Z AUTO 19014KT 10SM FEW024 BKN029 30/24 A3001 RMK AO2 T03000244
KPSX 241453Z AUTO 19014KT 10SM CLR 29/23 A2999 RMK AO2 SLP156 T02940233 51017
KPSX 241353Z AUTO 19012KT 10SM SCT025 BKN030 29/24 A2999 RMK AO2 SLP154 T02890239
KPSX 241253Z AUTO 19012KT 10SM FEW024 SCT030 28/24 A2996 RMK AO2 SLP145 T02830239
KPSX 241153Z AUTO 19013G18KT 9SM SCT027 28/24 A2994 RMK AO2 SLP138 T02830239 10283 20278 53002
KPSX 241131Z AUTO 20015KT 10SM SCT023 SCT031 28/23 A2994 RMK AO2 T02830233
KPSX 241121Z AUTO 19014G18KT 10SM BKN023 BKN030 28/24 A2994 RMK AO2 T02830244
KPSX 241053Z AUTO 20016G20KT 10SM SCT026 SCT033 28/24 A2994 RMK AO2 SLP136 T02830239
KPSX 241002Z AUTO 19013G20KT 10SM SCT024 SCT030 28/24 A2994 RMK AO2 T02830239
KPSX 240953Z AUTO 19014KT 10SM BKN024 BKN032 28/24 A2993 RMK AO2 SLP136 T02830239
KPSX 240941Z AUTO 18011KT 10SM BKN025 BKN030 28/24 A2993 RMK AO2 T02830244
KPSX 240913Z AUTO 19013KT 10SM FEW021 BKN031 28/24 A2993 RMK AO2 T02830244
KPSX 240900Z AUTO 18011KT 10SM SCT021 BKN029 28/24 A2994 RMK AO2 T02830244
KPSX 240853Z AUTO 18010KT 10SM FEW023 SCT029 28/24 A2994 RMK AO2 SLP136 T02830244 51005
KPSX 240845Z AUTO 19013KT 10SM BKN029 28/24 A2993 RMK AO2 T02830239
KPSX 240753Z AUTO 19012G18KT 10SM FEW022 28/24 A2993 RMK AO2 SLP134 T02830244
KPSX 240653Z AUTO 19010G21KT 10SM SCT022 28/24 A2993 RMK AO2 SLP136 T02830244
KPSX 240611Z AUTO 18014G22KT 10SM SCT020 28/24 A2993 RMK AO2 T02830244
KPSX 240602Z AUTO 19012G24KT 10SM BKN021 28/24 A2992 RMK AO2 T02830244
KPSX 240553Z AUTO 19016G24KT 10SM SCT021 28/25 A2992 RMK AO2 SLP131 T02830250 10300 20283 403170278 50002
KPSX 240453Z AUTO 18014G23KT 10SM BKN022 BKN030 28/24 A2992 RMK AO2 SLP132 T02830244
KPSX 240353Z AUTO 18012G19KT 10SM SCT022 BKN029 28/24 A2993 RMK AO2 SLP133 T02830244
KPSX 240253Z AUTO 17013KT 10SM CLR 28/24 A2991 RMK AO2 SLP129 T02830239 53009
KPSX 240153Z AUTO 17013G19KT 10SM FEW023 28/24 A2991 RMK AO2 SLP126 T02830239